createdAt,value
2023-05-02T00:07:00.978Z,18.00
2023-05-02T00:17:24.284Z,18.30
2023-05-02T00:27:46.946Z,18.00
2023-05-02T00:38:10.437Z,17.80
2023-05-02T00:48:32.286Z,17.60
2023-05-02T00:58:57.975Z,17.70
2023-05-02T01:09:35.642Z,17.50
2023-05-02T01:20:01.562Z,18.00
2023-05-02T01:30:26.643Z,17.80
2023-05-02T01:40:51.435Z,17.40
2023-05-02T01:51:16.577Z,17.60
2023-05-02T02:01:40.401Z,17.70
2023-05-02T02:12:07.583Z,17.80
2023-05-02T02:22:31.368Z,18.20
2023-05-02T02:32:54.591Z,17.90
2023-05-02T02:43:25.010Z,18.10
2023-05-02T02:53:58.802Z,18.10
2023-05-02T03:04:23.765Z,17.60
2023-05-02T03:14:47.046Z,17.40
2023-05-02T03:25:09.590Z,17.20
2023-05-02T03:35:36.792Z,16.80
2023-05-02T03:45:59.036Z,16.80
2023-05-02T03:56:23.159Z,16.60
2023-05-02T04:06:55.232Z,16.60
2023-05-02T04:17:18.775Z,16.60
2023-05-02T04:27:43.064Z,16.70
2023-05-02T04:38:09.473Z,16.90
2023-05-02T04:48:32.232Z,17.30
2023-05-02T04:58:55.569Z,17.70
2023-05-02T05:09:17.850Z,17.70
2023-05-02T05:19:40.967Z,17.70
2023-05-02T05:30:03.815Z,17.70
2023-05-02T05:40:27.726Z,18.20
2023-05-02T05:50:52.982Z,17.70
2023-05-02T06:01:16.051Z,17.80
2023-05-02T06:11:38.637Z,18.20
2023-05-02T06:22:02.901Z,18.50
2023-05-02T06:32:24.655Z,18.30
2023-05-02T06:42:47.633Z,18.60
2023-05-02T06:53:08.956Z,18.80
2023-05-02T07:03:31.968Z,18.80
2023-05-02T07:13:53.362Z,19.00
2023-05-02T07:24:16.168Z,19.20
2023-05-02T07:34:37.745Z,19.00
2023-05-02T07:45:00.921Z,19.10
2023-05-02T07:55:22.590Z,19.40
2023-05-02T08:05:45.696Z,18.30
2023-05-02T08:16:08.784Z,19.40
2023-05-02T08:26:31.918Z,18.60
2023-05-02T08:47:17.580Z,19.30
2023-05-02T08:57:40.792Z,20.10
2023-05-02T09:08:04.096Z,19.60
2023-05-02T09:18:25.693Z,20.00
2023-05-02T09:28:49.622Z,19.60
2023-05-02T09:39:13.342Z,19.70
2023-05-02T09:49:44.814Z,19.90
2023-05-02T10:00:08.934Z,19.60
2023-05-02T10:10:38.718Z,19.70
2023-05-02T10:21:02.765Z,19.30
2023-05-02T10:31:27.194Z,18.80
2023-05-02T10:41:49.368Z,19.40
2023-05-02T10:52:30.756Z,19.00
2023-05-02T11:02:52.904Z,18.70
2023-05-02T11:13:16.949Z,19.40
2023-05-02T11:23:40.422Z,17.70
2023-05-02T11:34:04.596Z,17.20
2023-05-02T11:44:25.999Z,16.60
2023-05-02T11:54:49.615Z,17.60
2023-05-02T12:05:15.819Z,17.50
2023-05-02T12:15:38.892Z,17.60
2023-05-02T12:26:00.528Z,17.50
2023-05-02T12:36:24.389Z,18.00
2023-05-02T12:47:00.286Z,17.60
2023-05-02T12:57:27.518Z,19.30
2023-05-02T13:07:49.337Z,18.50
2023-05-02T13:18:12.316Z,17.70
2023-05-02T13:28:35.777Z,18.80
2023-05-02T13:38:58.759Z,19.80
2023-05-02T13:49:20.448Z,18.30
2023-05-02T13:59:43.269Z,18.00
2023-05-02T14:10:05.364Z,17.50
2023-05-02T14:20:28.520Z,17.30
2023-05-02T14:30:49.995Z,17.00
2023-05-02T14:41:13.824Z,17.80
2023-05-02T14:51:35.654Z,17.40
2023-05-02T15:01:58.847Z,17.10
2023-05-02T15:12:20.344Z,16.70
2023-05-02T15:22:43.300Z,16.10
2023-05-02T15:33:05.068Z,16.30
2023-05-02T15:43:28.417Z,16.20
2023-05-02T15:53:52.361Z,16.80
2023-05-02T16:04:15.470Z,16.20
2023-05-02T16:14:37.323Z,16.40
2023-05-02T16:25:00.597Z,16.00
2023-05-02T16:35:22.409Z,15.90
2023-05-02T16:45:46.870Z,16.50
2023-05-02T16:56:08.958Z,17.30
2023-05-02T17:06:32.807Z,17.00
2023-05-02T17:16:54.218Z,17.20
2023-05-02T17:27:17.164Z,17.10
2023-05-02T17:37:40.521Z,16.50
2023-05-02T17:48:04.089Z,16.40
2023-05-02T17:58:25.528Z,16.10
2023-05-02T18:08:48.507Z,16.00
2023-05-02T18:19:10.519Z,15.80
2023-05-02T18:29:36.387Z,16.10
2023-05-02T18:39:58.191Z,15.80
2023-05-02T18:50:21.318Z,15.60
2023-05-02T19:00:44.238Z,15.60
2023-05-02T19:11:07.686Z,15.90
2023-05-02T19:21:29.124Z,16.20
2023-05-02T19:31:52.329Z,16.00
2023-05-02T19:42:14.196Z,16.20
2023-05-02T19:52:39.115Z,16.30
2023-05-02T20:03:00.690Z,16.20
2023-05-02T20:13:24.870Z,16.10
2023-05-02T20:23:46.821Z,16.00
2023-05-02T20:34:09.955Z,15.80
2023-05-02T20:44:33.492Z,15.60
2023-05-02T20:54:57.695Z,15.60
2023-05-02T21:05:19.575Z,15.50
2023-05-02T21:15:42.621Z,15.40
2023-05-02T21:26:05.065Z,15.30
2023-05-02T21:36:28.480Z,15.20
2023-05-02T21:46:50.517Z,15.00
2023-05-02T21:57:14.049Z,14.90
2023-05-02T22:07:36.971Z,14.80
2023-05-02T22:18:01.593Z,14.50
2023-05-02T22:28:23.328Z,14.50
2023-05-02T22:38:46.370Z,14.50
2023-05-02T22:49:10.362Z,14.30
2023-05-02T22:59:33.638Z,14.10
2023-05-02T23:09:55.747Z,14.20
2023-05-02T23:20:21.497Z,14.20
2023-05-02T23:30:43.149Z,14.20
2023-05-02T23:41:06.032Z,14.30
2023-05-02T23:51:28.949Z,14.00
